sensor_id;sensor_type;location;lat;lon;timestamp;pressure;altitude;pressure_sealevel;temperature;humidity
34124;BME280;13153;52.316;21.166;2024-03-25T00:00:11;98931.25;;;8.18;60.75
34124;BME280;13153;52.316;21.166;2024-03-25T00:02:39;98922.69;;;8.31;60.80
34124;BME280;13153;52.316;21.166;2024-03-25T00:05:06;98930.63;;;8.36;60.47
34124;BME280;13153;52.316;21.166;2024-03-25T00:07:35;98932.38;;;8.37;61.00
34124;BME280;13153;52.316;21.166;2024-03-25T00:10:02;98926.31;;;8.41;60.56
34124;BME280;13153;52.316;21.166;2024-03-25T00:12:28;98922.84;;;8.42;60.24
34124;BME280;13153;52.316;21.166;2024-03-25T00:14:54;98928.06;;;8.40;59.98
34124;BME280;13153;52.316;21.166;2024-03-25T00:17:20;98914.16;;;8.46;60.11
34124;BME280;13153;52.316;21.166;2024-03-25T00:19:46;98914.22;;;8.50;60.38
34124;BME280;13153;52.316;21.166;2024-03-25T00:22:17;98923.78;;;8.48;59.75
34124;BME280;13153;52.316;21.166;2024-03-25T00:24:43;98919.47;;;8.53;59.47
34124;BME280;13153;52.316;21.166;2024-03-25T00:27:09;98916.84;;;8.52;59.80
34124;BME280;13153;52.316;21.166;2024-03-25T00:29:34;98928.19;;;8.51;59.69
34124;BME280;13153;52.316;21.166;2024-03-25T00:32:00;98917.69;;;8.49;60.02
34124;BME280;13153;52.316;21.166;2024-03-25T00:34:26;98918.47;;;8.42;59.93
34124;BME280;13153;52.316;21.166;2024-03-25T00:36:52;98924.38;;;8.26;60.47
34124;BME280;13153;52.316;21.166;2024-03-25T00:39:18;98919.06;;;8.21;60.63
34124;BME280;13153;52.316;21.166;2024-03-25T00:41:44;98926.13;;;8.27;60.28
34124;BME280;13153;52.316;21.166;2024-03-25T00:44:10;98925.31;;;8.31;60.16
34124;BME280;13153;52.316;21.166;2024-03-25T00:46:36;98922.69;;;8.31;60.12
34124;BME280;13153;52.316;21.166;2024-03-25T00:49:02;98923.69;;;8.41;60.36
34124;BME280;13153;52.316;21.166;2024-03-25T00:51:28;98929.66;;;8.31;59.93
34124;BME280;13153;52.316;21.166;2024-03-25T00:53:54;98917.41;;;8.28;60.70
34124;BME280;13153;52.316;21.166;2024-03-25T00:56:19;98920.91;;;8.28;60.90
34124;BME280;13153;52.316;21.166;2024-03-25T00:58:46;98921.88;;;8.34;60.44
34124;BME280;13153;52.316;21.166;2024-03-25T01:01:12;98916.72;;;8.41;60.39
34124;BME280;13153;52.316;21.166;2024-03-25T01:03:37;98916.75;;;8.43;60.12
34124;BME280;13153;52.316;21.166;2024-03-25T01:06:03;98907.13;;;8.42;59.96
34124;BME280;13153;52.316;21.166;2024-03-25T01:08:30;98918.38;;;8.33;60.57
34124;BME280;13153;52.316;21.166;2024-03-25T01:10:55;98908.69;;;8.31;60.16
34124;BME280;13153;52.316;21.166;2024-03-25T01:13:21;98906.97;;;8.31;60.51
34124;BME280;13153;52.316;21.166;2024-03-25T01:15:47;98907.00;;;8.33;60.66
34124;BME280;13153;52.316;21.166;2024-03-25T01:18:13;98905.19;;;8.30;60.41
34124;BME280;13153;52.316;21.166;2024-03-25T01:20:39;98901.66;;;8.25;60.15
34124;BME280;13153;52.316;21.166;2024-03-25T01:23:05;98906.06;;;8.29;60.46
34124;BME280;13153;52.316;21.166;2024-03-25T01:25:31;98906.91;;;8.28;60.86
34124;BME280;13153;52.316;21.166;2024-03-25T01:27:56;98904.28;;;8.26;60.66
34124;BME280;13153;52.316;21.166;2024-03-25T01:30:22;98900.66;;;8.17;60.75
34124;BME280;13153;52.316;21.166;2024-03-25T01:32:48;98905.00;;;8.13;61.00
34124;BME280;13153;52.316;21.166;2024-03-25T01:35:14;98901.56;;;8.17;61.21
34124;BME280;13153;52.316;21.166;2024-03-25T01:37:41;98899.81;;;8.19;60.88
34124;BME280;13153;52.316;21.166;2024-03-25T01:40:08;98899.78;;;8.16;60.96
34124;BME280;13153;52.316;21.166;2024-03-25T01:42:36;98895.44;;;8.17;61.17
34124;BME280;13153;52.316;21.166;2024-03-25T01:45:03;98902.34;;;8.12;60.46
34124;BME280;13153;52.316;21.166;2024-03-25T01:47:31;98893.56;;;8.04;61.76
34124;BME280;13153;52.316;21.166;2024-03-25T01:49:59;98896.22;;;8.10;61.68
34124;BME280;13153;52.316;21.166;2024-03-25T01:52:26;98887.47;;;8.06;60.79
34124;BME280;13153;52.316;21.166;2024-03-25T01:54:53;98894.38;;;8.00;60.73
34124;BME280;13153;52.316;21.166;2024-03-25T01:57:20;98892.59;;;7.97;61.12
34124;BME280;13153;52.316;21.166;2024-03-25T01:59:46;98890.97;;;8.07;61.59
34124;BME280;13153;52.316;21.166;2024-03-25T02:02:12;98890.06;;;8.05;61.38
34124;BME280;13153;52.316;21.166;2024-03-25T02:04:42;98886.50;;;7.98;61.30
34124;BME280;13153;52.316;21.166;2024-03-25T02:07:10;98880.41;;;7.99;61.60
34124;BME280;13153;52.316;21.166;2024-03-25T02:09:38;98891.84;;;8.07;60.94
34124;BME280;13153;52.316;21.166;2024-03-25T02:12:04;98885.75;;;8.10;60.82
34124;BME280;13153;52.316;21.166;2024-03-25T02:14:30;98891.84;;;8.09;61.32
34124;BME280;13153;52.316;21.166;2024-03-25T02:16:56;98888.38;;;8.11;60.85
34124;BME280;13153;52.316;21.166;2024-03-25T02:19:24;98884.91;;;8.14;60.96
34124;BME280;13153;52.316;21.166;2024-03-25T02:21:50;98886.44;;;7.93;61.86
34124;BME280;13153;52.316;21.166;2024-03-25T02:24:20;98889.00;;;7.90;61.53
34124;BME280;13153;52.316;21.166;2024-03-25T02:26:47;98900.38;;;7.91;61.22
34124;BME280;13153;52.316;21.166;2024-03-25T02:29:13;98895.97;;;7.88;61.76
34124;BME280;13153;52.316;21.166;2024-03-25T02:31:39;98898.72;;;7.98;61.63
34124;BME280;13153;52.316;21.166;2024-03-25T02:34:05;98892.53;;;7.92;61.93
34124;BME280;13153;52.316;21.166;2024-03-25T02:36:30;98894.28;;;7.93;61.83
34124;BME280;13153;52.316;21.166;2024-03-25T02:38:59;98901.97;;;7.81;61.83
34124;BME280;13153;52.316;21.166;2024-03-25T02:41:25;98898.53;;;7.85;62.09
34124;BME280;13153;52.316;21.166;2024-03-25T02:43:53;98900.38;;;7.92;62.19
34124;BME280;13153;52.316;21.166;2024-03-25T02:46:18;98903.91;;;7.94;61.75
34124;BME280;13153;52.316;21.166;2024-03-25T02:48:46;98899.59;;;7.98;61.47
34124;BME280;13153;52.316;21.166;2024-03-25T02:51:12;98907.50;;;8.03;61.27
34124;BME280;13153;52.316;21.166;2024-03-25T02:53:37;98903.91;;;7.94;61.88
34124;BME280;13153;52.316;21.166;2024-03-25T02:56:03;98902.06;;;7.87;61.66
34124;BME280;13153;52.316;21.166;2024-03-25T02:58:29;98908.28;;;7.95;61.10
34124;BME280;13153;52.316;21.166;2024-03-25T03:00:55;98904.75;;;7.93;61.30
34124;BME280;13153;52.316;21.166;2024-03-25T03:03:21;98902.03;;;7.84;61.52
34124;BME280;13153;52.316;21.166;2024-03-25T03:05:46;98909.88;;;7.84;61.74
34124;BME280;13153;52.316;21.166;2024-03-25T03:08:12;98907.25;;;7.84;61.57
34124;BME280;13153;52.316;21.166;2024-03-25T03:10:38;98909.03;;;7.87;62.46
34124;BME280;13153;52.316;21.166;2024-03-25T03:13:03;98921.28;;;7.89;61.64
34124;BME280;13153;52.316;21.166;2024-03-25T03:15:29;98913.47;;;7.92;61.68
34124;BME280;13153;52.316;21.166;2024-03-25T03:17:55;98917.88;;;7.93;61.51
34124;BME280;13153;52.316;21.166;2024-03-25T03:20:20;98915.22;;;7.92;61.39
34124;BME280;13153;52.316;21.166;2024-03-25T03:22:46;98918.69;;;7.89;61.67
34124;BME280;13153;52.316;21.166;2024-03-25T03:25:12;98923.00;;;7.87;61.67
34124;BME280;13153;52.316;21.166;2024-03-25T03:27:38;98916.91;;;7.88;61.63
34124;BME280;13153;52.316;21.166;2024-03-25T03:30:04;98919.28;;;7.70;62.35
34124;BME280;13153;52.316;21.166;2024-03-25T03:32:31;98928.00;;;7.69;61.93
34124;BME280;13153;52.316;21.166;2024-03-25T03:34:57;98922.56;;;7.57;62.47
34124;BME280;13153;52.316;21.166;2024-03-25T03:37:22;98928.78;;;7.63;63.06
34124;BME280;13153;52.316;21.166;2024-03-25T03:39:48;98922.63;;;7.60;63.20
34124;BME280;13153;52.316;21.166;2024-03-25T03:42:14;98930.47;;;7.60;63.13
34124;BME280;13153;52.316;21.166;2024-03-25T03:44:39;98928.69;;;7.57;62.99
34124;BME280;13153;52.316;21.166;2024-03-25T03:47:05;98932.28;;;7.64;62.57
34124;BME280;13153;52.316;21.166;2024-03-25T03:49:31;98937.50;;;7.62;63.02
34124;BME280;13153;52.316;21.166;2024-03-25T03:51:57;98943.69;;;7.69;62.99
34124;BME280;13153;52.316;21.166;2024-03-25T03:54:23;98935.94;;;7.77;62.17
34124;BME280;13153;52.316;21.166;2024-03-25T03:56:48;98940.34;;;7.79;62.22
34124;BME280;13153;52.316;21.166;2024-03-25T03:59:14;98951.63;;;7.74;62.25
34124;BME280;13153;52.316;21.166;2024-03-25T04:01:40;98959.59;;;7.81;62.17
34124;BME280;13153;52.316;21.166;2024-03-25T04:04:05;98943.84;;;7.80;62.45
34124;BME280;13153;52.316;21.166;2024-03-25T04:06:31;98945.59;;;7.81;62.15
34124;BME280;13153;52.316;21.166;2024-03-25T04:08:57;98949.91;;;7.76;62.29
34124;BME280;13153;52.316;21.166;2024-03-25T04:11:23;98952.50;;;7.74;62.79
34124;BME280;13153;52.316;21.166;2024-03-25T04:13:48;98949.94;;;7.77;62.33
34124;BME280;13153;52.316;21.166;2024-03-25T04:16:14;98949.84;;;7.71;62.79
34124;BME280;13153;52.316;21.166;2024-03-25T04:18:40;98948.97;;;7.72;62.57
34124;BME280;13153;52.316;21.166;2024-03-25T04:21:12;98944.56;;;7.68;63.05
34124;BME280;13153;52.316;21.166;2024-03-25T04:23:38;98947.13;;;7.65;63.03
34124;BME280;13153;52.316;21.166;2024-03-25T04:26:03;98951.47;;;7.65;63.18
34124;BME280;13153;52.316;21.166;2024-03-25T04:28:31;98948.88;;;7.66;63.25
34124;BME280;13153;52.316;21.166;2024-03-25T04:30:57;98957.56;;;7.63;62.80
34124;BME280;13153;52.316;21.166;2024-03-25T04:33:23;98952.41;;;7.68;62.84
34124;BME280;13153;52.316;21.166;2024-03-25T04:35:48;98949.75;;;7.67;62.60
34124;BME280;13153;52.316;21.166;2024-03-25T04:38:17;98962.81;;;7.65;62.97
34124;BME280;13153;52.316;21.166;2024-03-25T04:40:43;98958.47;;;7.66;62.93
34124;BME280;13153;52.316;21.166;2024-03-25T04:43:10;98952.41;;;7.68;62.98
34124;BME280;13153;52.316;21.166;2024-03-25T04:45:35;98954.19;;;7.71;63.28
34124;BME280;13153;52.316;21.166;2024-03-25T04:48:01;98955.75;;;7.59;63.64
34124;BME280;13153;52.316;21.166;2024-03-25T04:50:27;98958.47;;;7.66;63.54
34124;BME280;13153;52.316;21.166;2024-03-25T04:52:53;98954.19;;;7.71;63.20
34124;BME280;13153;52.316;21.166;2024-03-25T04:55:18;98954.38;;;7.83;62.72
34124;BME280;13153;52.316;21.166;2024-03-25T04:57:44;98951.78;;;7.84;62.39
34124;BME280;13153;52.316;21.166;2024-03-25T05:00:11;98949.22;;;7.89;62.95
34124;BME280;13153;52.316;21.166;2024-03-25T05:02:38;98950.91;;;7.85;62.95
34124;BME280;13153;52.316;21.166;2024-03-25T05:05:04;98956.16;;;7.85;62.50
34124;BME280;13153;52.316;21.166;2024-03-25T05:07:30;98956.16;;;7.87;62.38
34124;BME280;13153;52.316;21.166;2024-03-25T05:09:56;98965.75;;;7.85;62.89
34124;BME280;13153;52.316;21.166;2024-03-25T05:12:22;98964.09;;;7.91;62.75
34124;BME280;13153;52.316;21.166;2024-03-25T05:14:48;98958.84;;;7.91;62.98
34124;BME280;13153;52.316;21.166;2024-03-25T05:17:13;98955.47;;;7.99;62.89
34124;BME280;13153;52.316;21.166;2024-03-25T05:19:39;98961.44;;;7.88;62.66
34124;BME280;13153;52.316;21.166;2024-03-25T05:22:05;98960.75;;;8.02;63.10
34124;BME280;13153;52.316;21.166;2024-03-25T05:24:31;98958.97;;;7.99;62.45
34124;BME280;13153;52.316;21.166;2024-03-25T05:26:56;98968.75;;;8.14;62.35
34124;BME280;13153;52.316;21.166;2024-03-25T05:29:22;98962.78;;;8.25;61.58
34124;BME280;13153;52.316;21.166;2024-03-25T05:32:00;98964.75;;;8.40;62.13
34124;BME280;13153;52.316;21.166;2024-03-25T05:34:27;98965.75;;;8.50;61.32
34124;BME280;13153;52.316;21.166;2024-03-25T05:36:53;98967.66;;;8.65;60.88
34124;BME280;13153;52.316;21.166;2024-03-25T05:39:19;98967.66;;;8.68;60.28
34124;BME280;13153;52.316;21.166;2024-03-25T05:41:46;98975.59;;;8.72;60.68
34124;BME280;13153;52.316;21.166;2024-03-25T05:44:12;98967.81;;;8.80;59.91
34124;BME280;13153;52.316;21.166;2024-03-25T05:46:39;98963.56;;;8.91;59.94
34124;BME280;13153;52.316;21.166;2024-03-25T05:49:05;98968.78;;;8.89;59.96
34124;BME280;13153;52.316;21.166;2024-03-25T05:51:32;98971.47;;;8.96;59.85
34124;BME280;13153;52.316;21.166;2024-03-25T05:54:01;98972.25;;;8.87;60.06
34124;BME280;13153;52.316;21.166;2024-03-25T05:56:28;98967.25;;;9.10;59.50
34124;BME280;13153;52.316;21.166;2024-03-25T05:59:00;98970.94;;;9.33;59.44
34124;BME280;13153;52.316;21.166;2024-03-25T06:01:26;98975.47;;;9.51;58.58
34124;BME280;13153;52.316;21.166;2024-03-25T06:03:52;98977.44;;;9.81;57.81
34124;BME280;13153;52.316;21.166;2024-03-25T06:06:19;98978.63;;;10.30;56.81
34124;BME280;13153;52.316;21.166;2024-03-25T06:08:45;98975.16;;;10.48;55.76
34124;BME280;13153;52.316;21.166;2024-03-25T06:11:10;98977.81;;;10.55;55.14
34124;BME280;13153;52.316;21.166;2024-03-25T06:13:36;98979.63;;;10.66;54.89
34124;BME280;13153;52.316;21.166;2024-03-25T06:16:02;98983.16;;;10.77;54.45
34124;BME280;13153;52.316;21.166;2024-03-25T06:18:28;98991.13;;;11.12;54.13
34124;BME280;13153;52.316;21.166;2024-03-25T06:20:54;98985.91;;;11.48;52.71
34124;BME280;13153;52.316;21.166;2024-03-25T06:23:28;98994.69;;;11.81;52.11
34124;BME280;13153;52.316;21.166;2024-03-25T06:25:55;98984.13;;;11.93;51.80
34124;BME280;13153;52.316;21.166;2024-03-25T06:28:22;98980.47;;;12.41;51.53
34124;BME280;13153;52.316;21.166;2024-03-25T06:30:49;98985.44;;;13.07;49.69
34124;BME280;13153;52.316;21.166;2024-03-25T06:33:34;98989.94;;;14.03;47.60
34124;BME280;13153;52.316;21.166;2024-03-25T06:36:38;98993.63;;;14.71;45.57
34124;BME280;13153;52.316;21.166;2024-03-25T06:39:03;98997.69;;;15.56;44.05
34124;BME280;13153;52.316;21.166;2024-03-25T06:41:29;99005.09;;;16.37;43.03
34124;BME280;13153;52.316;21.166;2024-03-25T06:43:55;99001.78;;;17.12;41.10
34124;BME280;13153;52.316;21.166;2024-03-25T06:46:21;99002.31;;;17.28;39.76
34124;BME280;13153;52.316;21.166;2024-03-25T06:48:46;99005.91;;;17.26;39.98
34124;BME280;13153;52.316;21.166;2024-03-25T06:51:12;99004.97;;;17.28;39.70
34124;BME280;13153;52.316;21.166;2024-03-25T06:53:38;99004.56;;;17.45;39.86
34124;BME280;13153;52.316;21.166;2024-03-25T06:56:04;99006.06;;;17.57;39.68
34124;BME280;13153;52.316;21.166;2024-03-25T06:58:30;99000.28;;;17.76;39.17
34124;BME280;13153;52.316;21.166;2024-03-25T07:00:56;99004.19;;;18.31;39.09
34124;BME280;13153;52.316;21.166;2024-03-25T07:03:28;99008.13;;;19.09;38.12
34124;BME280;13153;52.316;21.166;2024-03-25T07:05:54;99008.19;;;19.65;36.56
34124;BME280;13153;52.316;21.166;2024-03-25T07:08:24;99010.88;;;20.18;36.23
34124;BME280;13153;52.316;21.166;2024-03-25T07:10:50;99001.22;;;20.14;35.63
34124;BME280;13153;52.316;21.166;2024-03-25T07:13:16;99004.31;;;20.02;35.84
34124;BME280;13153;52.316;21.166;2024-03-25T07:15:43;98998.84;;;19.78;36.25
34124;BME280;13153;52.316;21.166;2024-03-25T07:18:09;99000.84;;;19.72;35.22
34124;BME280;13153;52.316;21.166;2024-03-25T07:20:36;99010.56;;;19.74;35.41
34124;BME280;13153;52.316;21.166;2024-03-25T07:23:03;98997.88;;;19.55;34.95
34124;BME280;13153;52.316;21.166;2024-03-25T07:25:29;99005.41;;;19.40;35.24
34124;BME280;13153;52.316;21.166;2024-03-25T07:27:55;99002.44;;;19.22;35.47
34124;BME280;13153;52.316;21.166;2024-03-25T07:30:21;99001.69;;;18.89;35.28
34124;BME280;13153;52.316;21.166;2024-03-25T07:32:57;99008.22;;;18.77;36.07
34124;BME280;13153;52.316;21.166;2024-03-25T07:35:23;99007.56;;;18.69;36.34
34124;BME280;13153;52.316;21.166;2024-03-25T07:37:49;99011.34;;;18.62;36.07
34124;BME280;13153;52.316;21.166;2024-03-25T07:40:19;99008.75;;;18.57;36.68
34124;BME280;13153;52.316;21.166;2024-03-25T07:42:45;99012.16;;;18.64;36.40
34124;BME280;13153;52.316;21.166;2024-03-25T07:45:11;99019.97;;;18.70;36.52
34124;BME280;13153;52.316;21.166;2024-03-25T07:47:37;99018.19;;;18.38;36.26
34124;BME280;13153;52.316;21.166;2024-03-25T07:50:03;99022.19;;;18.22;36.61
34124;BME280;13153;52.316;21.166;2024-03-25T07:52:29;99029.25;;;17.89;36.78
34124;BME280;13153;52.316;21.166;2024-03-25T07:54:55;99025.28;;;17.69;37.59
34124;BME280;13153;52.316;21.166;2024-03-25T07:57:21;99025.59;;;17.17;38.17
34124;BME280;13153;52.316;21.166;2024-03-25T07:59:48;99030.31;;;16.60;38.67
34124;BME280;13153;52.316;21.166;2024-03-25T08:02:14;99031.41;;;16.49;39.23
34124;BME280;13153;52.316;21.166;2024-03-25T08:04:40;99029.53;;;16.55;39.66
34124;BME280;13153;52.316;21.166;2024-03-25T08:07:05;99020.91;;;16.88;39.45
34124;BME280;13153;52.316;21.166;2024-03-25T08:09:31;99017.22;;;17.34;38.91
34124;BME280;13153;52.316;21.166;2024-03-25T08:11:58;99015.84;;;17.55;38.47
34124;BME280;13153;52.316;21.166;2024-03-25T08:14:23;99019.19;;;17.66;38.25
34124;BME280;13153;52.316;21.166;2024-03-25T08:16:49;99017.91;;;17.82;39.09
34124;BME280;13153;52.316;21.166;2024-03-25T08:19:16;99018.25;;;18.02;38.67
34124;BME280;13153;52.316;21.166;2024-03-25T08:21:42;99018.88;;;18.12;38.12
34124;BME280;13153;52.316;21.166;2024-03-25T08:24:07;99029.28;;;18.21;38.23
34124;BME280;13153;52.316;21.166;2024-03-25T08:26:33;99021.00;;;18.33;38.17
34124;BME280;13153;52.316;21.166;2024-03-25T08:28:59;99026.19;;;18.38;37.55
34124;BME280;13153;52.316;21.166;2024-03-25T08:31:25;99023.84;;;18.26;36.51
34124;BME280;13153;52.316;21.166;2024-03-25T08:33:50;99022.19;;;18.22;36.44
34124;BME280;13153;52.316;21.166;2024-03-25T08:36:17;99034.16;;;18.04;36.21
34124;BME280;13153;52.316;21.166;2024-03-25T08:38:44;99038.34;;;17.80;37.22
34124;BME280;13153;52.316;21.166;2024-03-25T08:41:10;99038.28;;;17.83;36.80
34124;BME280;13153;52.316;21.166;2024-03-25T08:43:36;99044.34;;;17.88;36.54
34124;BME280;13153;52.316;21.166;2024-03-25T08:46:02;99041.06;;;18.12;36.92
34124;BME280;13153;52.316;21.166;2024-03-25T08:48:29;99035.13;;;18.35;37.21
34124;BME280;13153;52.316;21.166;2024-03-25T08:50:55;99038.63;;;18.37;36.72
34124;BME280;13153;52.316;21.166;2024-03-25T08:53:21;99039.47;;;18.05;36.08
34124;BME280;13153;52.316;21.166;2024-03-25T08:55:47;99039.94;;;17.87;37.01
34124;BME280;13153;52.316;21.166;2024-03-25T08:58:14;99036.91;;;18.01;37.34
34124;BME280;13153;52.316;21.166;2024-03-25T09:00:42;99037.25;;;18.23;36.40
34124;BME280;13153;52.316;21.166;2024-03-25T09:03:08;99045.94;;;18.29;36.40
34124;BME280;13153;52.316;21.166;2024-03-25T09:05:34;99043.53;;;18.20;36.36
34124;BME280;13153;52.316;21.166;2024-03-25T09:08:01;99040.63;;;18.29;36.69
34124;BME280;13153;52.316;21.166;2024-03-25T09:10:27;99039.63;;;18.33;35.86
34124;BME280;13153;52.316;21.166;2024-03-25T09:13:12;99039.94;;;18.21;35.26
34124;BME280;13153;52.316;21.166;2024-03-25T09:15:38;99042.66;;;18.20;35.68
34124;BME280;13153;52.316;21.166;2024-03-25T09:18:04;99046.13;;;17.88;35.76
34124;BME280;13153;52.316;21.166;2024-03-25T09:20:30;99051.47;;;17.88;35.74
34124;BME280;13153;52.316;21.166;2024-03-25T09:22:56;99043.31;;;17.55;36.22
34124;BME280;13153;52.316;21.166;2024-03-25T09:25:23;99039.69;;;17.59;36.96
34124;BME280;13153;52.316;21.166;2024-03-25T09:27:49;99046.19;;;17.46;37.36
34124;BME280;13153;52.316;21.166;2024-03-25T09:30:16;99039.88;;;17.52;37.66
34124;BME280;13153;52.316;21.166;2024-03-25T09:32:44;99046.66;;;17.65;37.35
34124;BME280;13153;52.316;21.166;2024-03-25T09:35:10;99033.44;;;17.62;36.07
34124;BME280;13153;52.316;21.166;2024-03-25T09:37:37;99037.34;;;17.45;35.83
34124;BME280;13153;52.316;21.166;2024-03-25T09:40:03;99039.38;;;17.34;36.41
34124;BME280;13153;52.316;21.166;2024-03-25T09:42:49;99043.47;;;17.49;36.97
34124;BME280;13153;52.316;21.166;2024-03-25T09:45:18;99039.38;;;17.74;37.02
34124;BME280;13153;52.316;21.166;2024-03-25T09:47:48;99039.34;;;18.10;36.43
34124;BME280;13153;52.316;21.166;2024-03-25T09:50:15;99046.66;;;18.36;36.18
34124;BME280;13153;52.316;21.166;2024-03-25T09:52:48;99048.59;;;18.29;34.91
34124;BME280;13153;52.316;21.166;2024-03-25T09:55:15;99046.84;;;18.28;35.83
34124;BME280;13153;52.316;21.166;2024-03-25T09:57:43;99051.53;;;18.19;34.98
34124;BME280;13153;52.316;21.166;2024-03-25T10:00:10;99042.59;;;18.21;35.52
34124;BME280;13153;52.316;21.166;2024-03-25T10:02:41;99040.97;;;18.15;34.98
34124;BME280;13153;52.316;21.166;2024-03-25T10:05:08;99044.91;;;18.01;35.18
34124;BME280;13153;52.316;21.166;2024-03-25T10:07:35;99039.50;;;18.04;35.40
34124;BME280;13153;52.316;21.166;2024-03-25T10:10:07;99037.94;;;17.95;35.67
34124;BME280;13153;52.316;21.166;2024-03-25T10:12:36;99046.41;;;17.77;36.29
34124;BME280;13153;52.316;21.166;2024-03-25T10:15:03;99044.91;;;17.65;36.02
34124;BME280;13153;52.316;21.166;2024-03-25T10:17:32;99051.59;;;17.43;35.66
34124;BME280;13153;52.316;21.166;2024-03-25T10:19:58;99055.84;;;17.11;35.81
34124;BME280;13153;52.316;21.166;2024-03-25T10:22:24;99050.00;;;16.94;36.43
34124;BME280;13153;52.316;21.166;2024-03-25T10:24:50;99055.69;;;16.76;37.00
34124;BME280;13153;52.316;21.166;2024-03-25T10:27:23;99061.41;;;16.55;37.56
34124;BME280;13153;52.316;21.166;2024-03-25T10:29:53;99058.16;;;16.39;37.50
34124;BME280;13153;52.316;21.166;2024-03-25T10:32:20;99056.47;;;16.35;37.72
34124;BME280;13153;52.316;21.166;2024-03-25T10:34:47;99052.97;;;16.31;38.13
34124;BME280;13153;52.316;21.166;2024-03-25T10:37:15;99053.13;;;16.22;38.17
34124;BME280;13153;52.316;21.166;2024-03-25T10:39:51;99063.91;;;16.14;38.70
34124;BME280;13153;52.316;21.166;2024-03-25T10:42:21;99064.09;;;16.04;38.74
34124;BME280;13153;52.316;21.166;2024-03-25T10:44:48;99062.50;;;15.94;38.86
34124;BME280;13153;52.316;21.166;2024-03-25T10:47:28;99052.81;;;15.91;39.01
34124;BME280;13153;52.316;21.166;2024-03-25T10:50:06;99053.75;;;15.87;39.55
34124;BME280;13153;52.316;21.166;2024-03-25T10:52:37;99053.75;;;15.87;38.75
34124;BME280;13153;52.316;21.166;2024-03-25T10:55:03;99066.22;;;15.82;38.43
34124;BME280;13153;52.316;21.166;2024-03-25T10:57:31;99060.25;;;15.68;37.54
34124;BME280;13153;52.316;21.166;2024-03-25T10:59:58;99051.63;;;15.57;37.56
34124;BME280;13153;52.316;21.166;2024-03-25T11:02:25;99056.06;;;15.53;37.89
34124;BME280;13153;52.316;21.166;2024-03-25T11:04:51;99059.56;;;15.55;37.89
34124;BME280;13153;52.316;21.166;2024-03-25T11:07:30;99061.91;;;15.75;38.56
34124;BME280;13153;52.316;21.166;2024-03-25T11:10:04;99060.00;;;15.83;38.20
34124;BME280;13153;52.316;21.166;2024-03-25T11:12:36;99058.00;;;15.99;38.10
34124;BME280;13153;52.316;21.166;2024-03-25T11:15:06;99062.16;;;16.15;38.49
34124;BME280;13153;52.316;21.166;2024-03-25T11:17:36;99068.06;;;16.29;39.15
34124;BME280;13153;52.316;21.166;2024-03-25T11:20:13;99061.81;;;16.32;38.51
34124;BME280;13153;52.316;21.166;2024-03-25T11:22:52;99062.13;;;16.16;39.19
34124;BME280;13153;52.316;21.166;2024-03-25T11:25:21;99061.41;;;16.05;39.89
34124;BME280;13153;52.316;21.166;2024-03-25T11:27:47;99064.25;;;15.95;41.26
34124;BME280;13153;52.316;21.166;2024-03-25T11:30:16;99054.75;;;15.80;42.36
34124;BME280;13153;52.316;21.166;2024-03-25T11:32:54;99054.94;;;15.69;44.78
34124;BME280;13153;52.316;21.166;2024-03-25T11:35:21;99056.00;;;15.56;45.90
34124;BME280;13153;52.316;21.166;2024-03-25T11:37:47;99053.50;;;15.45;44.65
34124;BME280;13153;52.316;21.166;2024-03-25T11:40:14;99050.88;;;15.44;44.86
34124;BME280;13153;52.316;21.166;2024-03-25T11:42:42;99042.84;;;15.50;44.39
34124;BME280;13153;52.316;21.166;2024-03-25T11:45:18;99040.16;;;15.53;42.94
34124;BME280;13153;52.316;21.166;2024-03-25T11:47:46;99045.63;;;15.41;42.40
34124;BME280;13153;52.316;21.166;2024-03-25T11:50:18;99039.88;;;15.10;42.00
34124;BME280;13153;52.316;21.166;2024-03-25T11:52:45;99040.97;;;14.95;41.71
34124;BME280;13153;52.316;21.166;2024-03-25T11:55:11;99041.84;;;14.97;41.21
34124;BME280;13153;52.316;21.166;2024-03-25T11:57:40;99041.66;;;15.08;41.32
34124;BME280;13153;52.316;21.166;2024-03-25T12:00:08;99034.44;;;15.20;40.68
34124;BME280;13153;52.316;21.166;2024-03-25T12:02:42;99038.03;;;15.15;40.73
34124;BME280;13153;52.316;21.166;2024-03-25T12:05:08;99036.25;;;15.15;40.20
34124;BME280;13153;52.316;21.166;2024-03-25T12:07:34;99035.31;;;15.19;41.04
34124;BME280;13153;52.316;21.166;2024-03-25T12:10:02;99043.16;;;15.27;41.81
34124;BME280;13153;52.316;21.166;2024-03-25T12:12:46;99050.31;;;15.20;42.54
34124;BME280;13153;52.316;21.166;2024-03-25T12:15:13;99049.25;;;15.34;42.58
34124;BME280;13153;52.316;21.166;2024-03-25T12:17:39;99047.50;;;15.33;39.22
34124;BME280;13153;52.316;21.166;2024-03-25T12:20:07;99051.13;;;15.26;37.88
34124;BME280;13153;52.316;21.166;2024-03-25T12:22:34;99043.25;;;15.21;38.01
34124;BME280;13153;52.316;21.166;2024-03-25T12:25:02;99053.88;;;15.18;38.26
34124;BME280;13153;52.316;21.166;2024-03-25T12:27:29;99045.00;;;15.22;38.32
34124;BME280;13153;52.316;21.166;2024-03-25T12:30:09;99045.00;;;15.22;38.50
34124;BME280;13153;52.316;21.166;2024-03-25T12:32:43;99053.84;;;15.21;38.21
34124;BME280;13153;52.316;21.166;2024-03-25T12:35:11;99048.47;;;15.27;38.23
34124;BME280;13153;52.316;21.166;2024-03-25T12:37:41;99050.19;;;15.31;38.09
34124;BME280;13153;52.316;21.166;2024-03-25T12:40:10;99050.97;;;15.38;38.33
34124;BME280;13153;52.316;21.166;2024-03-25T12:42:37;99052.69;;;15.42;38.43
34124;BME280;13153;52.316;21.166;2024-03-25T12:45:06;99050.06;;;15.39;38.03
34124;BME280;13153;52.316;21.166;2024-03-25T12:47:32;99045.66;;;15.39;37.62
34124;BME280;13153;52.316;21.166;2024-03-25T12:49:58;99053.63;;;15.38;37.97
34124;BME280;13153;52.316;21.166;2024-03-25T12:52:25;99048.59;;;15.18;37.49
34124;BME280;13153;52.316;21.166;2024-03-25T12:54:51;99056.63;;;15.10;38.15